Time;durP1;ratioP1;P1;durP2;ratioP2;P2;SDS_P1;SDS_P2;PMS_P1;PMS_P2;Temp;Humidity;BMP_temperature;BMP_pressure;BME280_temperature;BME280_humidity;BME280_pressure;Samples;Min_cycle;Max_cycle;Signal;HPM_P1;HPM_P2
2022/05/06 00:01:44;;;;;;;7.20;3.97;;;;;;;;;;4886767;29;20100;-76
2022/05/06 00:04:10;;;;;;;7.05;4.00;;;;;;;;;;4882080;29;20033;-76
2022/05/06 00:06:37;;;;;;;6.47;3.70;;;;;;;;;;4879529;29;20021;-73
2022/05/06 00:09:04;;;;;;;6.10;3.67;;;;;;;;;;4884704;29;20038;-72
2022/05/06 00:11:31;;;;;;;6.38;3.72;;;;;;;;;;4884350;29;20089;-77
2022/05/06 00:13:57;;;;;;;10.02;4.72;;;;;;;;;;4884620;29;20116;-73
2022/05/06 00:16:24;;;;;;;6.60;4.70;;;;;;;;;;4886978;29;20021;-74
2022/05/06 00:18:50;;;;;;;5.55;4.78;;;;;;;;;;4882611;29;20065;-73
2022/05/06 00:21:16;;;;;;;7.57;4.57;;;;;;;;;;4864798;29;20456;-73
2022/05/06 00:23:43;;;;;;;6.25;4.70;;;;;;;;;;4870653;29;20029;-73
2022/05/06 00:26:09;;;;;;;8.43;5.20;;;;;;;;;;4882697;29;20037;-73
2022/05/06 00:28:35;;;;;;;6.05;4.57;;;;;;;;;;4885941;29;20092;-73
2022/05/06 00:31:02;;;;;;;7.38;4.85;;;;;;;;;;4883535;29;20025;-73
2022/05/06 00:33:28;;;;;;;6.80;4.60;;;;;;;;;;4884711;29;20029;-75
2022/05/06 00:35:55;;;;;;;8.07;4.63;;;;;;;;;;4886810;29;20101;-76
2022/05/06 00:38:21;;;;;;;7.95;4.70;;;;;;;;;;4884148;29;20040;-78
2022/05/06 00:40:47;;;;;;;7.70;4.78;;;;;;;;;;4883262;29;20022;-72
2022/05/06 00:43:14;;;;;;;7.18;4.93;;;;;;;;;;4882245;29;20033;-71
2022/05/06 00:45:53;;;;;;;7.72;4.93;;;;;;;;;;4885314;29;20025;-72
2022/05/06 00:48:22;;;;;;;7.47;4.95;;;;;;;;;;4887222;29;20026;-72
2022/05/06 00:50:50;;;;;;;8.15;5.07;;;;;;;;;;4885763;29;20063;-74
2022/05/06 00:53:16;;;;;;;5.50;4.55;;;;;;;;;;4881209;29;20029;-73
2022/05/06 00:55:43;;;;;;;9.35;4.65;;;;;;;;;;4886420;29;20009;-73
2022/05/06 00:58:09;;;;;;;7.80;4.50;;;;;;;;;;4886255;29;20029;-75
2022/05/06 01:00:35;;;;;;;8.95;4.30;;;;;;;;;;4880323;29;20033;-72
2022/05/06 01:03:02;;;;;;;6.38;3.85;;;;;;;;;;4879819;29;20028;-75
2022/05/06 01:05:28;;;;;;;6.68;4.00;;;;;;;;;;4884064;29;20045;-73
2022/05/06 01:07:55;;;;;;;6.20;3.97;;;;;;;;;;4885995;29;20032;-73
2022/05/06 01:10:22;;;;;;;6.03;4.35;;;;;;;;;;4888914;29;20538;-73
2022/05/06 01:12:48;;;;;;;5.90;3.92;;;;;;;;;;4881139;29;20504;-72
2022/05/06 01:15:25;;;;;;;5.15;3.95;;;;;;;;;;4883699;29;20065;-74
2022/05/06 01:17:54;;;;;;;5.65;3.97;;;;;;;;;;4872278;29;20395;-72
2022/05/06 01:20:21;;;;;;;6.85;3.80;;;;;;;;;;4884473;29;20526;-77
2022/05/06 01:22:48;;;;;;;5.68;3.83;;;;;;;;;;4879040;29;20085;-72
2022/05/06 01:25:15;;;;;;;5.18;3.67;;;;;;;;;;4869745;29;20496;-74
2022/05/06 01:27:47;;;;;;;5.15;4.05;;;;;;;;;;4863466;29;20061;-78
2022/05/06 01:30:17;;;;;;;6.07;4.00;;;;;;;;;;4862127;29;20488;-72
2022/05/06 01:32:46;;;;;;;5.82;4.05;;;;;;;;;;4868586;29;20037;-73
2022/05/06 01:35:14;;;;;;;5.40;4.50;;;;;;;;;;4864788;29;20518;-72
2022/05/06 01:37:41;;;;;;;7.45;4.60;;;;;;;;;;4866870;29;20568;-72
2022/05/06 01:40:08;;;;;;;6.68;5.03;;;;;;;;;;4866288;29;20104;-74
2022/05/06 01:42:34;;;;;;;7.75;4.93;;;;;;;;;;4867950;29;20013;-73
2022/05/06 01:45:01;;;;;;;7.10;4.60;;;;;;;;;;4870050;29;20052;-72
2022/05/06 01:47:28;;;;;;;6.80;4.93;;;;;;;;;;4868167;29;20391;-72
2022/05/06 01:49:54;;;;;;;10.63;4.90;;;;;;;;;;4852825;29;20025;-73
2022/05/06 01:52:20;;;;;;;8.10;5.10;;;;;;;;;;4865172;29;20030;-72
2022/05/06 01:54:47;;;;;;;9.38;4.85;;;;;;;;;;4870805;29;20037;-72
2022/05/06 01:57:14;;;;;;;6.78;4.90;;;;;;;;;;4865029;29;20017;-72
2022/05/06 01:59:40;;;;;;;6.15;4.80;;;;;;;;;;4868823;29;20443;-73
2022/05/06 02:02:06;;;;;;;7.82;4.90;;;;;;;;;;4872261;29;20029;-77
2022/05/06 02:07:31;;;;;;;10.70;5.13;;;;;;;;;;4828466;29;20038;-74
2022/05/06 02:09:57;;;;;;;6.28;4.70;;;;;;;;;;4833799;29;20074;-73
2022/05/06 02:12:23;;;;;;;14.70;5.60;;;;;;;;;;4831002;29;20042;-73
2022/05/06 02:14:49;;;;;;;7.95;4.32;;;;;;;;;;4834089;29;20105;-73
2022/05/06 02:17:15;;;;;;;8.75;4.75;;;;;;;;;;4832997;29;20065;-72
2022/05/06 02:19:42;;;;;;;7.13;4.72;;;;;;;;;;4831702;29;20045;-75
2022/05/06 02:22:08;;;;;;;6.65;4.57;;;;;;;;;;4833761;29;20041;-73
2022/05/06 02:24:34;;;;;;;10.50;4.78;;;;;;;;;;4841003;29;20058;-72
2022/05/06 02:27:00;;;;;;;7.35;4.55;;;;;;;;;;4845215;29;20044;-72
2022/05/06 02:29:27;;;;;;;7.38;4.88;;;;;;;;;;4843438;29;20049;-73
2022/05/06 02:34:37;;;;;;;6.88;4.80;;;;;;;;;;4848033;29;20511;-73
2022/05/06 02:37:10;;;;;;;9.13;4.90;;;;;;;;;;4844656;29;20034;-73
2022/05/06 02:39:36;;;;;;;7.47;4.70;;;;;;;;;;4846634;29;20110;-73
2022/05/06 02:42:03;;;;;;;6.57;4.53;;;;;;;;;;4845802;29;20014;-73
2022/05/06 02:44:29;;;;;;;6.10;4.47;;;;;;;;;;4886541;29;20029;-73
2022/05/06 02:46:55;;;;;;;6.10;4.53;;;;;;;;;;4888482;29;20013;-73
2022/05/06 02:49:21;;;;;;;8.55;4.10;;;;;;;;;;4884481;29;20025;-73
2022/05/06 02:51:51;;;;;;;5.93;3.92;;;;;;;;;;4880893;29;20056;-72
2022/05/06 02:54:21;;;;;;;6.63;4.57;;;;;;;;;;4887521;29;20138;-73
2022/05/06 02:56:49;;;;;;;18.05;4.85;;;;;;;;;;4888792;29;20025;-72
2022/05/06 02:59:17;;;;;;;7.93;4.50;;;;;;;;;;4887559;29;20023;-72
2022/05/06 03:01:45;;;;;;;6.28;4.30;;;;;;;;;;4881429;29;20130;-72
2022/05/06 03:04:13;;;;;;;6.43;4.45;;;;;;;;;;4887686;29;20033;-72
2022/05/06 03:06:42;;;;;;;5.70;4.50;;;;;;;;;;4885540;29;20025;-79
2022/05/06 03:09:08;;;;;;;7.30;4.22;;;;;;;;;;4886980;29;20103;-76
2022/05/06 03:11:34;;;;;;;9.20;4.38;;;;;;;;;;4882179;29;20618;-73
2022/05/06 03:14:00;;;;;;;7.25;4.10;;;;;;;;;;4885850;29;20089;-74
2022/05/06 03:16:27;;;;;;;8.48;4.30;;;;;;;;;;4886631;29;20025;-73
2022/05/06 03:18:53;;;;;;;5.88;3.88;;;;;;;;;;4887997;29;20017;-73
2022/05/06 03:21:19;;;;;;;5.93;4.25;;;;;;;;;;4886439;29;20085;-73
2022/05/06 03:23:53;;;;;;;5.40;4.32;;;;;;;;;;4883504;29;20060;-77
2022/05/06 03:26:19;;;;;;;6.78;4.25;;;;;;;;;;4885635;29;20056;-73
2022/05/06 03:28:45;;;;;;;7.28;4.20;;;;;;;;;;4886318;29;20037;-75
2022/05/06 03:31:13;;;;;;;7.03;4.10;;;;;;;;;;4884525;29;20084;-73
2022/05/06 03:33:42;;;;;;;7.28;4.20;;;;;;;;;;4882566;29;20427;-73
2022/05/06 03:36:11;;;;;;;7.18;3.70;;;;;;;;;;4885620;29;20108;-74
2022/05/06 03:38:37;;;;;;;5.85;3.83;;;;;;;;;;4884555;29;20032;-73
2022/05/06 03:41:03;;;;;;;5.13;3.90;;;;;;;;;;4884898;29;20033;-73
2022/05/06 03:43:29;;;;;;;7.95;4.18;;;;;;;;;;4866403;29;20041;-73
2022/05/06 03:45:55;;;;;;;6.13;3.60;;;;;;;;;;4888806;29;20033;-77
2022/05/06 03:48:24;;;;;;;9.40;4.30;;;;;;;;;;4890914;29;20036;-73
2022/05/06 03:53:38;;;;;;;6.95;4.00;;;;;;;;;;4885117;29;20116;-73
2022/05/06 03:56:04;;;;;;;9.40;3.75;;;;;;;;;;4885303;29;20029;-74
2022/05/06 03:58:32;;;;;;;7.10;4.03;;;;;;;;;;4889024;29;20029;-73
2022/05/06 04:00:58;;;;;;;5.10;3.80;;;;;;;;;;4886720;29;20021;-73
2022/05/06 04:03:24;;;;;;;5.78;3.85;;;;;;;;;;4886463;29;20044;-76
2022/05/06 04:05:52;;;;;;;6.65;3.90;;;;;;;;;;4882499;29;20448;-72
2022/05/06 04:08:20;;;;;;;6.40;3.88;;;;;;;;;;4886507;29;20085;-72
2022/05/06 04:10:46;;;;;;;5.35;4.55;;;;;;;;;;4888279;29;20037;-73
2022/05/06 04:13:12;;;;;;;8.02;5.32;;;;;;;;;;4887202;29;20048;-73
2022/05/06 04:15:38;;;;;;;6.63;5.30;;;;;;;;;;4883810;29;20285;-72
2022/05/06 04:18:05;;;;;;;7.00;4.25;;;;;;;;;;4875212;29;20511;-72
2022/05/06 04:23:31;;;;;;;5.63;4.15;;;;;;;;;;4880334;29;20132;-73
2022/05/06 04:26:01;;;;;;;10.23;4.35;;;;;;;;;;4883359;29;20091;-72
2022/05/06 04:28:31;;;;;;;7.07;3.72;;;;;;;;;;4886133;29;20084;-73
2022/05/06 04:30:58;;;;;;;10.38;6.47;;;;;;;;;;4884912;29;20081;-75
2022/05/06 04:33:27;;;;;;;6.55;4.43;;;;;;;;;;4888062;29;20108;-76
2022/05/06 04:35:54;;;;;;;10.38;4.20;;;;;;;;;;4884888;29;20025;-72
2022/05/06 04:38:20;;;;;;;6.55;4.25;;;;;;;;;;4883281;29;20120;-73
2022/05/06 04:40:47;;;;;;;5.22;3.97;;;;;;;;;;4887287;29;20058;-75
2022/05/06 04:43:13;;;;;;;8.98;4.13;;;;;;;;;;4889228;29;20035;-76
2022/05/06 04:45:40;;;;;;;6.55;4.10;;;;;;;;;;4890576;29;20016;-74
2022/05/06 04:48:07;;;;;;;10.07;4.38;;;;;;;;;;4888146;29;20040;-78
2022/05/06 04:50:33;;;;;;;10.27;4.10;;;;;;;;;;4889858;29;20493;-78
2022/05/06 04:53:00;;;;;;;6.55;4.30;;;;;;;;;;4887518;29;20027;-72
2022/05/06 04:55:26;;;;;;;7.18;4.07;;;;;;;;;;4885555;29;20033;-79
2022/05/06 04:57:54;;;;;;;7.80;4.30;;;;;;;;;;4888929;29;20025;-73
2022/05/06 05:00:21;;;;;;;5.40;4.00;;;;;;;;;;4889839;29;20040;-78
2022/05/06 05:02:48;;;;;;;18.20;4.20;;;;;;;;;;4890115;29;20037;-79
2022/05/06 05:05:14;;;;;;;7.55;5.93;;;;;;;;;;4872487;29;20399;-79
2022/05/06 05:07:40;;;;;;;5.25;4.35;;;;;;;;;;4895732;29;20257;-76
2022/05/06 05:10:08;;;;;;;6.88;4.30;;;;;;;;;;4870580;29;20013;-73
2022/05/06 05:12:35;;;;;;;7.18;4.50;;;;;;;;;;4895025;29;20059;-78
2022/05/06 05:15:01;;;;;;;6.97;4.57;;;;;;;;;;4888427;29;20060;-73
2022/05/06 05:17:28;;;;;;;6.22;4.13;;;;;;;;;;4884311;29;20492;-78
2022/05/06 05:19:54;;;;;;;9.13;4.20;;;;;;;;;;4887020;29;20056;-74
2022/05/06 05:22:20;;;;;;;8.32;4.50;;;;;;;;;;4888657;29;20054;-78
2022/05/06 05:24:49;;;;;;;7.97;3.97;;;;;;;;;;4891764;29;20061;-73
2022/05/06 05:27:18;;;;;;;9.27;3.90;;;;;;;;;;4886819;29;20085;-74
2022/05/06 05:29:45;;;;;;;10.98;4.10;;;;;;;;;;4880260;29;20033;-73
2022/05/06 05:32:11;;;;;;;8.52;4.10;;;;;;;;;;4880773;29;20077;-71
2022/05/06 05:34:37;;;;;;;5.15;3.85;;;;;;;;;;4884383;29;20444;-73
2022/05/06 05:37:08;;;;;;;9.02;3.83;;;;;;;;;;4877446;29;20025;-77
2022/05/06 05:39:35;;;;;;;8.05;4.15;;;;;;;;;;4865190;29;20551;-76
2022/05/06 05:42:03;;;;;;;8.77;4.18;;;;;;;;;;4881236;29;20033;-73
2022/05/06 05:50:01;;;;;;;6.43;4.03;;;;;;;;;;4925621;29;20035;-75
2022/05/06 05:52:28;;;;;;;8.18;4.70;;;;;;;;;;4918187;29;20451;-76
2022/05/06 05:54:55;;;;;;;6.40;3.88;;;;;;;;;;4917700;29;20070;-75
2022/05/06 05:57:21;;;;;;;5.45;4.03;;;;;;;;;;4920739;29;20507;-76
2022/05/06 06:00:13;;;;;;;9.07;4.40;;;;;;;;;;4927947;29;20042;-77
2022/05/06 06:02:39;;;;;;;9.00;4.43;;;;;;;;;;4878905;29;20036;-78
2022/05/06 06:05:08;;;;;;;9.57;4.32;;;;;;;;;;4899523;29;20056;-78
2022/05/06 06:07:36;;;;;;;6.60;4.22;;;;;;;;;;4915561;29;20037;-73
2022/05/06 06:10:02;;;;;;;9.13;4.68;;;;;;;;;;4894734;29;20045;-77
2022/05/06 06:12:28;;;;;;;7.93;4.20;;;;;;;;;;4885523;29;20080;-76
2022/05/06 06:14:55;;;;;;;13.05;4.57;;;;;;;;;;4895605;29;20044;-76
2022/05/06 06:17:22;;;;;;;11.68;4.55;;;;;;;;;;4880398;29;20052;-77
2022/05/06 06:19:49;;;;;;;9.30;4.35;;;;;;;;;;4876881;29;20037;-72
2022/05/06 06:22:15;;;;;;;11.30;4.53;;;;;;;;;;4879554;29;20033;-71
2022/05/06 06:24:41;;;;;;;5.65;4.60;;;;;;;;;;4880521;29;20536;-76
2022/05/06 06:27:11;;;;;;;7.35;4.03;;;;;;;;;;4885696;29;20032;-78
2022/05/06 06:29:37;;;;;;;9.25;4.63;;;;;;;;;;4889612;29;20067;-72
2022/05/06 06:32:04;;;;;;;8.00;4.38;;;;;;;;;;4896963;29;20033;-75
2022/05/06 06:34:30;;;;;;;6.05;4.55;;;;;;;;;;4900145;29;20127;-77
2022/05/06 06:36:56;;;;;;;7.07;4.70;;;;;;;;;;4902460;29;20035;-71
2022/05/06 06:39:22;;;;;;;11.85;4.85;;;;;;;;;;4910747;29;20094;-75
2022/05/06 06:41:48;;;;;;;9.30;5.13;;;;;;;;;;4908341;29;20075;-73
2022/05/06 06:44:14;;;;;;;9.20;4.63;;;;;;;;;;4897694;29;20056;-72
2022/05/06 06:46:40;;;;;;;8.27;4.57;;;;;;;;;;4906603;29;20024;-77
2022/05/06 06:49:06;;;;;;;10.55;4.78;;;;;;;;;;4912496;29;20048;-77
2022/05/06 06:51:33;;;;;;;8.25;4.65;;;;;;;;;;4915197;29;20057;-77
2022/05/06 06:53:59;;;;;;;9.38;4.70;;;;;;;;;;4888728;29;20036;-78
2022/05/06 06:56:25;;;;;;;8.93;4.72;;;;;;;;;;4903502;29;20048;-73
2022/05/06 06:58:51;;;;;;;6.32;4.60;;;;;;;;;;4901516;29;20503;-74
2022/05/06 07:01:17;;;;;;;10.50;5.00;;;;;;;;;;4898074;29;20041;-74
2022/05/06 07:03:43;;;;;;;11.65;4.88;;;;;;;;;;4897537;29;20064;-75
2022/05/06 07:24:37;;;;;;;8.55;5.20;;;;;;;;;;5030216;23;20050;-79
2022/05/06 07:27:23;;;;;;;8.93;4.93;;;;;;;;;;4920641;29;20440;-76
2022/05/06 07:29:56;;;;;;;10.38;5.45;;;;;;;;;;4921962;29;20029;-78
2022/05/06 07:32:25;;;;;;;9.63;5.40;;;;;;;;;;4939438;29;20043;-76
2022/05/06 07:34:51;;;;;;;7.55;4.82;;;;;;;;;;4917852;29;20027;-74
2022/05/06 07:37:17;;;;;;;8.82;4.82;;;;;;;;;;4911274;29;20089;-74
2022/05/06 07:39:43;;;;;;;9.73;4.68;;;;;;;;;;4916423;29;20071;-74
2022/05/06 07:42:11;;;;;;;6.45;4.75;;;;;;;;;;4915783;29;20032;-74
2022/05/06 07:44:47;;;;;;;6.65;4.68;;;;;;;;;;4936190;29;20039;-79
2022/05/06 07:47:35;;;;;;;11.82;4.97;;;;;;;;;;4905942;29;20032;-78
2022/05/06 07:50:25;;;;;;;7.25;4.97;;;;;;;;;;4869134;29;20034;-78
2022/05/06 07:52:58;;;;;;;6.43;4.75;;;;;;;;;;4876871;29;20132;-78
2022/05/06 07:55:27;;;;;;;9.35;5.03;;;;;;;;;;4863096;29;20038;-77
2022/05/06 07:57:53;;;;;;;6.47;4.60;;;;;;;;;;4862018;29;20116;-77
2022/05/06 08:00:24;;;;;;;9.75;4.85;;;;;;;;;;4864465;29;20049;-77
2022/05/06 08:05:38;;;;;;;7.72;4.80;;;;;;;;;;4854970;29;20097;-76
2022/05/06 08:08:06;;;;;;;6.32;4.55;;;;;;;;;;4858895;29;20048;-75
2022/05/06 08:10:32;;;;;;;9.27;4.63;;;;;;;;;;4860331;29;20049;-74
2022/05/06 08:12:58;;;;;;;20.38;5.20;;;;;;;;;;4859718;29;20045;-76
2022/05/06 08:15:25;;;;;;;11.10;5.00;;;;;;;;;;4853640;29;20116;-78
2022/05/06 08:17:51;;;;;;;6.20;4.60;;;;;;;;;;4854758;29;20033;-77
2022/05/06 08:20:17;;;;;;;12.40;4.68;;;;;;;;;;4858974;29;20048;-76
2022/05/06 08:22:43;;;;;;;5.90;4.32;;;;;;;;;;4892866;29;20024;-77
2022/05/06 08:25:09;;;;;;;6.90;4.10;;;;;;;;;;4892979;29;20033;-76
2022/05/06 08:27:54;;;;;;;6.97;4.75;;;;;;;;;;4900366;29;20020;-79
2022/05/06 08:30:22;;;;;;;8.27;4.57;;;;;;;;;;4896281;29;20025;-79
2022/05/06 08:32:48;;;;;;;9.35;4.40;;;;;;;;;;4904887;29;20028;-77
2022/05/06 08:35:15;;;;;;;17.60;5.07;;;;;;;;;;4895321;29;20028;-77
2022/05/06 08:37:45;;;;;;;7.47;4.45;;;;;;;;;;4894993;29;20423;-76
2022/05/06 08:40:32;;;;;;;9.38;4.50;;;;;;;;;;4898767;29;20489;-78
2022/05/06 08:42:59;;;;;;;6.63;4.40;;;;;;;;;;4897248;29;20032;-81
2022/05/06 08:50:57;;;;;;;8.63;4.50;;;;;;;;;;4898275;29;20566;-75
2022/05/06 08:53:26;;;;;;;6.70;4.45;;;;;;;;;;4899471;29;20036;-75
2022/05/06 08:55:55;;;;;;;7.03;4.30;;;;;;;;;;4899863;29;20518;-75
2022/05/06 08:58:31;;;;;;;10.13;4.55;;;;;;;;;;4905494;29;20045;-80
2022/05/06 09:01:05;;;;;;;8.35;4.43;;;;;;;;;;4882368;29;20494;-79
2022/05/06 09:03:31;;;;;;;6.38;4.03;;;;;;;;;;4900868;29;20037;-79
2022/05/06 09:05:58;;;;;;;6.80;4.20;;;;;;;;;;4904730;29;20032;-74
2022/05/06 09:08:34;;;;;;;8.88;4.15;;;;;;;;;;4897242;29;20031;-75
2022/05/06 09:11:04;;;;;;;5.72;4.00;;;;;;;;;;4899968;29;20455;-79
2022/05/06 09:13:32;;;;;;;12.25;4.00;;;;;;;;;;4898692;29;20080;-76
2022/05/06 09:19:20;;;;;;;11.52;4.32;;;;;;;;;;4897394;29;20664;-87
2022/05/06 09:22:14;;;;;;;12.27;6.75;;;;;;;;;;4895159;29;20029;-78
2022/05/06 09:24:40;;;;;;;;;;;;;;;;;;4895750;29;20045;-76
2022/05/06 09:27:06;;;;;;;12.50;6.60;;;;;;;;;;4898430;29;19962;-83
2022/05/06 09:29:34;;;;;;;15.73;4.72;;;;;;;;;;4898208;29;20382;-78
2022/05/06 09:32:19;;;;;;;11.52;4.45;;;;;;;;;;4898695;29;20036;-79
2022/05/06 09:34:51;;;;;;;7.38;4.47;;;;;;;;;;4892415;29;20053;-77
2022/05/06 09:37:30;;;;;;;18.30;4.32;;;;;;;;;;4896470;29;20539;-75
2022/05/06 09:40:02;;;;;;;8.27;4.72;;;;;;;;;;4896837;29;20041;-75
2022/05/06 09:42:28;;;;;;;10.20;4.40;;;;;;;;;;4890137;29;20061;-76
2022/05/06 09:44:54;;;;;;;28.50;5.53;;;;;;;;;;4892343;29;20088;-77
2022/05/06 09:47:20;;;;;;;11.93;4.45;;;;;;;;;;4887743;29;20099;-82
2022/05/06 09:49:49;;;;;;;10.20;5.25;;;;;;;;;;4891940;29;20028;-81
2022/05/06 09:52:16;;;;;;;21.08;11.05;;;;;;;;;;4883238;29;20037;-75
2022/05/06 09:54:43;;;;;;;12.52;5.10;;;;;;;;;;4886659;29;20036;-85
2022/05/06 09:57:13;;;;;;;10.20;4.90;;;;;;;;;;4889242;29;20048;-79
2022/05/06 09:59:40;;;;;;;9.50;4.60;;;;;;;;;;4891111;29;20119;-79
2022/05/06 10:02:06;;;;;;;12.48;4.25;;;;;;;;;;4890636;29;20033;-81
2022/05/06 10:04:32;;;;;;;11.55;4.50;;;;;;;;;;4884520;29;20025;-78
2022/05/06 10:07:02;;;;;;;7.53;4.25;;;;;;;;;;4889946;29;20119;-77
2022/05/06 10:09:33;;;;;;;8.07;4.68;;;;;;;;;;4894946;29;20383;-93
2022/05/06 10:12:01;;;;;;;11.40;5.10;;;;;;;;;;4893777;29;20103;-86
2022/05/06 10:14:27;;;;;;;10.23;4.68;;;;;;;;;;4875086;29;20067;-88
2022/05/06 10:16:53;;;;;;;19.73;4.95;;;;;;;;;;4896336;29;20826;-89
2022/05/06 10:19:38;;;;;;;12.80;4.95;;;;;;;;;;4874868;29;20048;-92
2022/05/06 10:22:05;;;;;;;9.48;4.70;;;;;;;;;;4886226;29;21200;-78
2022/05/06 10:24:41;;;;;;;10.32;4.32;;;;;;;;;;4895643;29;20049;-82
2022/05/06 10:32:58;;;;;;;12.23;4.90;;;;;;;;;;4896052;29;19922;-90
2022/05/06 10:35:37;;;;;;;8.75;4.30;;;;;;;;;;4898400;29;20047;-85
2022/05/06 10:38:24;;;;;;;10.20;4.50;;;;;;;;;;4895136;29;20033;-92
2022/05/06 10:40:56;;;;;;;11.70;4.53;;;;;;;;;;4891852;29;20475;-92
2022/05/06 10:43:46;;;;;;;11.75;4.45;;;;;;;;;;4896107;29;20033;-86
2022/05/06 10:46:12;;;;;;;7.68;4.57;;;;;;;;;;4863870;29;20053;-86
2022/05/06 10:48:38;;;;;;;7.57;4.22;;;;;;;;;;4857110;29;20060;-87
2022/05/06 10:51:30;;;;;;;10.10;4.50;;;;;;;;;;4858330;29;20372;-82
2022/05/06 10:53:56;;;;;;;11.20;5.82;;;;;;;;;;4854694;29;20045;-87
2022/05/06 10:56:22;;;;;;;21.02;8.20;;;;;;;;;;4859269;29;20030;-90
2022/05/06 10:58:56;;;;;;;9.27;4.88;;;;;;;;;;4857865;29;20045;-89
2022/05/06 11:01:24;;;;;;;9.65;5.00;;;;;;;;;;4858377;29;20112;-87
2022/05/06 11:03:54;;;;;;;10.05;4.97;;;;;;;;;;4840718;29;20037;-86
2022/05/06 11:06:24;;;;;;;10.40;4.13;;;;;;;;;;4856537;29;20029;-87
2022/05/06 11:08:50;;;;;;;16.92;5.57;;;;;;;;;;4860071;29;20078;-86
2022/05/06 11:11:17;;;;;;;15.63;6.82;;;;;;;;;;4840331;29;20037;-85
2022/05/06 11:13:47;;;;;;;8.88;4.22;;;;;;;;;;4857823;29;20054;-87
2022/05/06 11:16:14;;;;;;;8.90;4.63;;;;;;;;;;4840579;29;20034;-86
2022/05/06 11:18:44;;;;;;;13.23;4.53;;;;;;;;;;4833882;29;20042;-88
2022/05/06 11:21:22;;;;;;;7.60;4.50;;;;;;;;;;4860695;29;20072;-85
2022/05/06 11:23:48;;;;;;;8.35;4.75;;;;;;;;;;4885202;29;20051;-81
2022/05/06 11:26:24;;;;;;;12.55;6.10;;;;;;;;;;4893583;29;20036;-73
2022/05/06 11:29:01;;;;;;;13.57;4.65;;;;;;;;;;4892894;29;20092;-76
2022/05/06 11:31:28;;;;;;;12.25;4.50;;;;;;;;;;4895264;29;20794;-76
2022/05/06 11:33:57;;;;;;;14.63;5.82;;;;;;;;;;4895001;29;20040;-84
2022/05/06 11:36:23;;;;;;;12.70;5.53;;;;;;;;;;4895462;29;20028;-83
2022/05/06 11:38:52;;;;;;;16.35;5.65;;;;;;;;;;4895173;29;20032;-78
2022/05/06 11:41:18;;;;;;;11.90;4.50;;;;;;;;;;4899901;29;20042;-82
2022/05/06 11:43:46;;;;;;;7.68;4.13;;;;;;;;;;4893586;29;20021;-81
2022/05/06 11:49:04;;;;;;;16.42;5.20;;;;;;;;;;4893870;29;20062;-82
2022/05/06 11:51:44;;;;;;;8.73;4.53;;;;;;;;;;4893612;29;20028;-86
2022/05/06 11:54:11;;;;;;;14.68;4.95;;;;;;;;;;4895769;29;20028;-79
2022/05/06 11:56:37;;;;;;;12.25;4.20;;;;;;;;;;4896862;29;20029;-78
2022/05/06 11:59:04;;;;;;;7.28;4.18;;;;;;;;;;4898885;29;20048;-87
2022/05/06 12:01:31;;;;;;;10.05;4.10;;;;;;;;;;4895731;29;20048;-83
2022/05/06 12:04:08;;;;;;;8.85;4.30;;;;;;;;;;4894697;29;20040;-77
2022/05/06 12:06:38;;;;;;;7.20;3.80;;;;;;;;;;4893358;29;20383;-83
2022/05/06 12:09:16;;;;;;;7.13;3.92;;;;;;;;;;4895010;29;20043;-80
2022/05/06 12:11:43;;;;;;;9.88;4.28;;;;;;;;;;4892347;29;20069;-81
2022/05/06 12:14:15;;;;;;;8.90;4.80;;;;;;;;;;4892885;29;20052;-79
2022/05/06 12:16:58;;;;;;;7.93;4.25;;;;;;;;;;4892640;29;20033;-88
2022/05/06 12:19:33;;;;;;;10.80;4.47;;;;;;;;;;4893944;29;20571;-87
2022/05/06 12:22:08;;;;;;;10.07;3.70;;;;;;;;;;4892949;29;20096;-83
2022/05/06 12:24:41;;;;;;;8.00;3.80;;;;;;;;;;4885125;29;20059;-79
2022/05/06 12:27:08;;;;;;;6.88;3.80;;;;;;;;;;4893151;29;20036;-91
2022/05/06 12:29:38;;;;;;;8.63;4.50;;;;;;;;;;4894326;29;20064;-77
2022/05/06 12:32:04;;;;;;;6.47;3.75;;;;;;;;;;4893796;29;20059;-81
2022/05/06 12:34:34;;;;;;;6.47;3.42;;;;;;;;;;4893182;29;20103;-80
2022/05/06 12:37:10;;;;;;;8.57;4.07;;;;;;;;;;4890926;29;20032;-85
2022/05/06 12:39:48;;;;;;;6.28;4.00;;;;;;;;;;4893936;29;20471;-80
2022/05/06 12:42:14;;;;;;;7.88;4.03;;;;;;;;;;4890504;29;20020;-85
2022/05/06 12:44:40;;;;;;;9.00;3.97;;;;;;;;;;4892445;29;20524;-84
2022/05/06 12:50:09;;;;;;;11.05;6.95;;;;;;;;;;4894484;29;20479;-79
2022/05/06 12:52:35;;;;;;;10.63;6.80;;;;;;;;;;4895776;29;20116;-78
2022/05/06 12:55:02;;;;;;;8.10;3.67;;;;;;;;;;4895907;29;20051;-76
2022/05/06 12:57:28;;;;;;;9.23;4.60;;;;;;;;;;4895629;29;20032;-77
2022/05/06 12:59:54;;;;;;;6.65;3.78;;;;;;;;;;4896181;29;20040;-78
2022/05/06 13:02:20;;;;;;;9.10;4.10;;;;;;;;;;4895387;29;20032;-76
2022/05/06 13:04:47;;;;;;;9.48;3.92;;;;;;;;;;4896185;29;20028;-76
2022/05/06 13:07:13;;;;;;;9.75;3.95;;;;;;;;;;4896140;29;20052;-77
2022/05/06 13:09:40;;;;;;;9.10;3.90;;;;;;;;;;4889111;29;20037;-78
2022/05/06 13:12:06;;;;;;;7.13;4.30;;;;;;;;;;4896123;29;20513;-77
2022/05/06 13:14:32;;;;;;;10.45;3.65;;;;;;;;;;4896409;29;20028;-79
2022/05/06 13:16:58;;;;;;;8.23;3.80;;;;;;;;;;4896207;29;20061;-76
2022/05/06 13:19:30;;;;;;;9.10;4.25;;;;;;;;;;4898899;29;20040;-75
2022/05/06 13:21:56;;;;;;;6.95;4.22;;;;;;;;;;4894830;29;20360;-78
2022/05/06 13:24:23;;;;;;;8.88;4.00;;;;;;;;;;4879008;29;20410;-76
2022/05/06 13:26:49;;;;;;;9.52;3.90;;;;;;;;;;4898007;29;20153;-77
2022/05/06 13:29:15;;;;;;;7.05;3.78;;;;;;;;;;4899410;29;20483;-75
2022/05/06 13:31:42;;;;;;;11.05;4.20;;;;;;;;;;4899452;29;20052;-77
2022/05/06 13:34:08;;;;;;;8.50;3.97;;;;;;;;;;4898849;29;20043;-78
2022/05/06 13:36:34;;;;;;;11.85;8.85;;;;;;;;;;4904532;29;20032;-77
2022/05/06 13:39:00;;;;;;;9.57;5.30;;;;;;;;;;4899491;29;20056;-77
2022/05/06 13:41:27;;;;;;;5.80;4.15;;;;;;;;;;4898451;29;20044;-76
2022/05/06 13:43:54;;;;;;;8.77;4.30;;;;;;;;;;4898990;29;20107;-76
2022/05/06 13:46:20;;;;;;;6.25;3.80;;;;;;;;;;4899172;29;20029;-78
2022/05/06 13:48:48;;;;;;;8.93;3.55;;;;;;;;;;4899480;29;20036;-76
2022/05/06 13:51:14;;;;;;;6.18;3.47;;;;;;;;;;4898965;29;20023;-79
2022/05/06 13:53:40;;;;;;;8.80;3.22;;;;;;;;;;4899265;29;20043;-79
2022/05/06 13:59:11;;;;;;;10.27;3.85;;;;;;;;;;4896267;29;20055;-78
2022/05/06 14:01:38;;;;;;;9.95;3.83;;;;;;;;;;4896964;29;20044;-81
2022/05/06 14:04:04;;;;;;;6.38;3.92;;;;;;;;;;4882722;29;20096;-81
2022/05/06 14:06:31;;;;;;;7.53;3.90;;;;;;;;;;4897202;29;20574;-76
2022/05/06 14:08:57;;;;;;;10.70;4.18;;;;;;;;;;4877327;29;20060;-76
2022/05/06 14:11:27;;;;;;;6.32;3.60;;;;;;;;;;4897298;29;20051;-76
2022/05/06 14:13:54;;;;;;;5.97;4.00;;;;;;;;;;4892086;29;20029;-73
2022/05/06 14:16:20;;;;;;;11.60;4.00;;;;;;;;;;4893520;29;20084;-76
2022/05/06 14:18:46;;;;;;;10.55;4.07;;;;;;;;;;4897647;29;20134;-75
2022/05/06 14:21:12;;;;;;;8.55;3.60;;;;;;;;;;4898306;29;20058;-75
2022/05/06 14:23:38;;;;;;;7.93;3.70;;;;;;;;;;4898675;29;20044;-74
2022/05/06 14:26:04;;;;;;;5.10;3.50;;;;;;;;;;4898645;29;20029;-73
2022/05/06 14:28:30;;;;;;;13.18;4.13;;;;;;;;;;4897960;29;20057;-72
2022/05/06 14:30:56;;;;;;;10.57;3.60;;;;;;;;;;4900810;29;20025;-73
2022/05/06 14:33:22;;;;;;;6.85;3.55;;;;;;;;;;4898520;29;20037;-73
2022/05/06 14:35:49;;;;;;;9.55;3.45;;;;;;;;;;4898663;29;20471;-75
2022/05/06 14:38:15;;;;;;;6.85;3.78;;;;;;;;;;4898175;29;20487;-73
2022/05/06 14:40:41;;;;;;;5.38;3.65;;;;;;;;;;4898642;29;20487;-75
2022/05/06 14:43:08;;;;;;;7.85;3.45;;;;;;;;;;4898653;29;20025;-74
2022/05/06 14:45:36;;;;;;;8.30;3.30;;;;;;;;;;4898423;29;20183;-73
2022/05/06 14:48:02;;;;;;;9.32;4.15;;;;;;;;;;4892076;29;20129;-75
2022/05/06 14:50:28;;;;;;;6.97;4.10;;;;;;;;;;4898269;29;20050;-73
2022/05/06 14:52:54;;;;;;;4.88;3.28;;;;;;;;;;4898149;29;20081;-73
2022/05/06 14:55:21;;;;;;;6.07;3.42;;;;;;;;;;4898184;29;20447;-74
2022/05/06 14:57:47;;;;;;;5.50;3.55;;;;;;;;;;4898856;29;20526;-75
2022/05/06 15:00:14;;;;;;;12.27;4.93;;;;;;;;;;4897667;29;20041;-75
2022/05/06 15:02:40;;;;;;;16.00;9.50;;;;;;;;;;4898755;29;20025;-75
2022/05/06 15:05:07;;;;;;;9.75;4.72;;;;;;;;;;4895368;29;20390;-73
2022/05/06 15:07:33;;;;;;;8.50;4.00;;;;;;;;;;4897570;29;20394;-73
2022/05/06 15:09:59;;;;;;;6.00;3.30;;;;;;;;;;4896489;29;20028;-74
2022/05/06 15:12:25;;;;;;;7.50;3.60;;;;;;;;;;4897833;29;20119;-74
2022/05/06 15:14:52;;;;;;;6.22;3.40;;;;;;;;;;4897809;29;20498;-75
2022/05/06 15:17:18;;;;;;;7.97;3.65;;;;;;;;;;4897666;29;20041;-75
2022/05/06 15:19:45;;;;;;;11.05;3.60;;;;;;;;;;4895570;29;20115;-74
2022/05/06 15:22:12;;;;;;;9.90;3.20;;;;;;;;;;4896762;29;20024;-75
2022/05/06 15:24:38;;;;;;;19.88;4.20;;;;;;;;;;4897279;29;20056;-75
2022/05/06 15:27:04;;;;;;;29.13;4.30;;;;;;;;;;4897346;29;20028;-73
2022/05/06 15:29:32;;;;;;;8.57;3.35;;;;;;;;;;4897419;29;20036;-73
2022/05/06 15:31:58;;;;;;;22.40;3.95;;;;;;;;;;4897104;29;20021;-75
2022/05/06 15:34:25;;;;;;;9.07;3.70;;;;;;;;;;4897499;29;20395;-73
2022/05/06 15:36:51;;;;;;;63.03;5.57;;;;;;;;;;4897396;29;20021;-73
2022/05/06 15:39:18;;;;;;;16.55;4.22;;;;;;;;;;4897476;29;20061;-73
2022/05/06 15:41:44;;;;;;;11.07;3.67;;;;;;;;;;4901975;29;20028;-73
2022/05/06 15:44:11;;;;;;;16.67;3.42;;;;;;;;;;4909014;29;20036;-76
2022/05/06 15:46:38;;;;;;;7.82;3.38;;;;;;;;;;4897007;29;20024;-74
2022/05/06 15:49:04;;;;;;;9.63;3.50;;;;;;;;;;4894232;29;20025;-73